sensor_id;sensor_type;location;lat;lon;timestamp;P1;durP1;ratioP1;P2;durP2;ratioP2
59702;SDS011;45570;48.782;8.332;2023-04-03T00:01:48;4.50;;;3.15;;
59702;SDS011;45570;48.782;8.332;2023-04-03T00:04:18;7.20;;;3.63;;
59702;SDS011;45570;48.782;8.332;2023-04-03T00:06:47;4.85;;;3.88;;
59702;SDS011;45570;48.782;8.332;2023-04-03T00:09:16;6.85;;;3.65;;
59702;SDS011;45570;48.782;8.332;2023-04-03T00:11:47;5.97;;;3.35;;
59702;SDS011;45570;48.782;8.332;2023-04-03T00:14:17;6.57;;;3.53;;
59702;SDS011;45570;48.782;8.332;2023-04-03T00:16:46;4.68;;;3.60;;
59702;SDS011;45570;48.782;8.332;2023-04-03T00:19:15;5.47;;;3.70;;
59702;SDS011;45570;48.782;8.332;2023-04-03T00:21:44;7.47;;;3.45;;
59702;SDS011;45570;48.782;8.332;2023-04-03T00:24:13;5.88;;;3.80;;
59702;SDS011;45570;48.782;8.332;2023-04-03T00:26:45;3.67;;;3.03;;
59702;SDS011;45570;48.782;8.332;2023-04-03T00:29:15;6.03;;;3.40;;
59702;SDS011;45570;48.782;8.332;2023-04-03T00:31:45;6.20;;;3.42;;
59702;SDS011;45570;48.782;8.332;2023-04-03T00:34:14;4.80;;;3.33;;
59702;SDS011;45570;48.782;8.332;2023-04-03T00:36:43;5.78;;;3.22;;
59702;SDS011;45570;48.782;8.332;2023-04-03T00:39:12;7.38;;;3.30;;
59702;SDS011;45570;48.782;8.332;2023-04-03T00:41:42;7.53;;;3.60;;
59702;SDS011;45570;48.782;8.332;2023-04-03T00:44:23;5.95;;;3.33;;
59702;SDS011;45570;48.782;8.332;2023-04-03T00:47:29;6.40;;;3.45;;
59702;SDS011;45570;48.782;8.332;2023-04-03T00:50:00;5.20;;;3.45;;
59702;SDS011;45570;48.782;8.332;2023-04-03T00:52:30;4.65;;;3.25;;
59702;SDS011;45570;48.782;8.332;2023-04-03T00:55:01;5.47;;;3.72;;
59702;SDS011;45570;48.782;8.332;2023-04-03T00:57:33;4.38;;;2.97;;
59702;SDS011;45570;48.782;8.332;2023-04-03T01:00:05;7.43;;;4.10;;
59702;SDS011;45570;48.782;8.332;2023-04-03T01:02:41;4.57;;;3.45;;
59702;SDS011;45570;48.782;8.332;2023-04-03T01:05:14;6.90;;;3.67;;
59702;SDS011;45570;48.782;8.332;2023-04-03T01:07:44;6.65;;;3.22;;
59702;SDS011;45570;48.782;8.332;2023-04-03T01:10:15;4.50;;;3.08;;
59702;SDS011;45570;48.782;8.332;2023-04-03T01:12:48;4.13;;;3.30;;
59702;SDS011;45570;48.782;8.332;2023-04-03T01:15:21;4.80;;;3.10;;
59702;SDS011;45570;48.782;8.332;2023-04-03T01:17:52;3.45;;;2.92;;
59702;SDS011;45570;48.782;8.332;2023-04-03T01:23:45;5.65;;;3.17;;
59702;SDS011;45570;48.782;8.332;2023-04-03T01:26:22;6.00;;;3.30;;
59702;SDS011;45570;48.782;8.332;2023-04-03T01:28:53;4.57;;;3.13;;
59702;SDS011;45570;48.782;8.332;2023-04-03T01:31:25;3.60;;;3.25;;
59702;SDS011;45570;48.782;8.332;2023-04-03T01:37:51;6.20;;;3.63;;
59702;SDS011;45570;48.782;8.332;2023-04-03T01:40:23;3.67;;;3.00;;
59702;SDS011;45570;48.782;8.332;2023-04-03T01:42:53;3.88;;;2.95;;
59702;SDS011;45570;48.782;8.332;2023-04-03T01:45:22;6.30;;;3.35;;
59702;SDS011;45570;48.782;8.332;2023-04-03T01:47:51;5.18;;;3.08;;
59702;SDS011;45570;48.782;8.332;2023-04-03T01:50:23;6.68;;;3.35;;
59702;SDS011;45570;48.782;8.332;2023-04-03T01:52:55;3.92;;;3.30;;
59702;SDS011;45570;48.782;8.332;2023-04-03T01:55:24;7.03;;;3.28;;
59702;SDS011;45570;48.782;8.332;2023-04-03T01:57:53;5.57;;;3.92;;
59702;SDS011;45570;48.782;8.332;2023-04-03T02:00:23;6.45;;;3.60;;
59702;SDS011;45570;48.782;8.332;2023-04-03T02:02:53;4.88;;;3.38;;
59702;SDS011;45570;48.782;8.332;2023-04-03T02:05:25;4.82;;;3.40;;
59702;SDS011;45570;48.782;8.332;2023-04-03T02:07:55;5.82;;;3.90;;
59702;SDS011;45570;48.782;8.332;2023-04-03T02:10:25;4.20;;;3.47;;
59702;SDS011;45570;48.782;8.332;2023-04-03T02:12:58;4.63;;;3.50;;
59702;SDS011;45570;48.782;8.332;2023-04-03T02:15:27;3.53;;;3.22;;
59702;SDS011;45570;48.782;8.332;2023-04-03T02:17:57;3.88;;;3.10;;
59702;SDS011;45570;48.782;8.332;2023-04-03T02:20:27;4.55;;;3.45;;
59702;SDS011;45570;48.782;8.332;2023-04-03T02:22:57;3.40;;;3.05;;
59702;SDS011;45570;48.782;8.332;2023-04-03T02:25:27;4.97;;;3.28;;
59702;SDS011;45570;48.782;8.332;2023-04-03T02:27:56;9.35;;;3.38;;
59702;SDS011;45570;48.782;8.332;2023-04-03T02:30:25;4.28;;;3.45;;
59702;SDS011;45570;48.782;8.332;2023-04-03T02:32:54;4.30;;;3.03;;
59702;SDS011;45570;48.782;8.332;2023-04-03T02:35:25;7.88;;;4.57;;
59702;SDS011;45570;48.782;8.332;2023-04-03T02:38:00;10.30;;;3.90;;
59702;SDS011;45570;48.782;8.332;2023-04-03T02:40:29;4.82;;;3.40;;
59702;SDS011;45570;48.782;8.332;2023-04-03T02:42:58;8.57;;;3.83;;
59702;SDS011;45570;48.782;8.332;2023-04-03T02:45:28;5.60;;;3.75;;
59702;SDS011;45570;48.782;8.332;2023-04-03T02:47:57;6.22;;;3.80;;
59702;SDS011;45570;48.782;8.332;2023-04-03T02:50:29;4.03;;;3.50;;
59702;SDS011;45570;48.782;8.332;2023-04-03T02:53:00;4.32;;;3.30;;
59702;SDS011;45570;48.782;8.332;2023-04-03T02:55:30;5.90;;;3.50;;
59702;SDS011;45570;48.782;8.332;2023-04-03T02:57:59;7.85;;;4.22;;
59702;SDS011;45570;48.782;8.332;2023-04-03T03:00:28;6.43;;;3.58;;
59702;SDS011;45570;48.782;8.332;2023-04-03T03:02:57;8.35;;;4.30;;
59702;SDS011;45570;48.782;8.332;2023-04-03T03:05:26;5.97;;;3.65;;
59702;SDS011;45570;48.782;8.332;2023-04-03T03:07:55;6.15;;;3.67;;
59702;SDS011;45570;48.782;8.332;2023-04-03T03:10:26;5.30;;;3.58;;
59702;SDS011;45570;48.782;8.332;2023-04-03T03:12:55;6.47;;;3.47;;
59702;SDS011;45570;48.782;8.332;2023-04-03T03:15:24;7.22;;;3.85;;
59702;SDS011;45570;48.782;8.332;2023-04-03T03:17:55;5.35;;;3.30;;
59702;SDS011;45570;48.782;8.332;2023-04-03T03:20:25;5.63;;;3.35;;
59702;SDS011;45570;48.782;8.332;2023-04-03T03:22:54;4.63;;;3.33;;
59702;SDS011;45570;48.782;8.332;2023-04-03T03:25:24;3.58;;;3.20;;
59702;SDS011;45570;48.782;8.332;2023-04-03T03:27:54;4.65;;;3.60;;
59702;SDS011;45570;48.782;8.332;2023-04-03T03:30:24;5.55;;;3.60;;
59702;SDS011;45570;48.782;8.332;2023-04-03T03:32:53;4.72;;;3.88;;
59702;SDS011;45570;48.782;8.332;2023-04-03T03:35:22;7.15;;;3.75;;
59702;SDS011;45570;48.782;8.332;2023-04-03T03:37:51;6.13;;;3.72;;
59702;SDS011;45570;48.782;8.332;2023-04-03T03:40:21;5.47;;;3.55;;
59702;SDS011;45570;48.782;8.332;2023-04-03T03:42:51;3.97;;;3.50;;
59702;SDS011;45570;48.782;8.332;2023-04-03T03:45:22;6.82;;;3.90;;
59702;SDS011;45570;48.782;8.332;2023-04-03T03:47:51;6.07;;;3.90;;
59702;SDS011;45570;48.782;8.332;2023-04-03T03:50:21;7.30;;;3.90;;
59702;SDS011;45570;48.782;8.332;2023-04-03T03:52:51;10.98;;;3.53;;
59702;SDS011;45570;48.782;8.332;2023-04-03T03:55:20;5.45;;;3.80;;
59702;SDS011;45570;48.782;8.332;2023-04-03T03:57:53;5.60;;;3.72;;
59702;SDS011;45570;48.782;8.332;2023-04-03T04:00:24;6.05;;;3.47;;
59702;SDS011;45570;48.782;8.332;2023-04-03T04:02:55;4.13;;;3.38;;
59702;SDS011;45570;48.782;8.332;2023-04-03T04:05:26;4.68;;;3.70;;
59702;SDS011;45570;48.782;8.332;2023-04-03T04:07:57;4.63;;;3.85;;
59702;SDS011;45570;48.782;8.332;2023-04-03T04:10:26;6.90;;;4.13;;
59702;SDS011;45570;48.782;8.332;2023-04-03T04:12:57;8.23;;;3.72;;
59702;SDS011;45570;48.782;8.332;2023-04-03T04:15:29;9.57;;;4.00;;
59702;SDS011;45570;48.782;8.332;2023-04-03T04:17:58;5.82;;;3.80;;
59702;SDS011;45570;48.782;8.332;2023-04-03T04:20:28;5.22;;;3.72;;
59702;SDS011;45570;48.782;8.332;2023-04-03T04:22:57;4.72;;;3.63;;
59702;SDS011;45570;48.782;8.332;2023-04-03T04:25:28;4.45;;;3.30;;
59702;SDS011;45570;48.782;8.332;2023-04-03T04:27:57;5.95;;;3.50;;
59702;SDS011;45570;48.782;8.332;2023-04-03T04:30:26;6.32;;;3.45;;
59702;SDS011;45570;48.782;8.332;2023-04-03T04:32:57;4.82;;;3.85;;
59702;SDS011;45570;48.782;8.332;2023-04-03T04:35:27;4.97;;;3.22;;
59702;SDS011;45570;48.782;8.332;2023-04-03T04:37:56;7.30;;;3.65;;
59702;SDS011;45570;48.782;8.332;2023-04-03T04:40:25;5.93;;;3.50;;
59702;SDS011;45570;48.782;8.332;2023-04-03T04:42:54;8.27;;;3.92;;
59702;SDS011;45570;48.782;8.332;2023-04-03T04:45:24;6.45;;;3.85;;
59702;SDS011;45570;48.782;8.332;2023-04-03T04:47:56;5.38;;;3.97;;
59702;SDS011;45570;48.782;8.332;2023-04-03T04:50:25;5.57;;;3.60;;
59702;SDS011;45570;48.782;8.332;2023-04-03T04:52:55;5.30;;;3.72;;
59702;SDS011;45570;48.782;8.332;2023-04-03T04:55:24;5.93;;;3.85;;
59702;SDS011;45570;48.782;8.332;2023-04-03T04:57:53;7.97;;;3.35;;
59702;SDS011;45570;48.782;8.332;2023-04-03T05:00:22;7.90;;;4.22;;
59702;SDS011;45570;48.782;8.332;2023-04-03T05:02:53;6.28;;;4.38;;
59702;SDS011;45570;48.782;8.332;2023-04-03T05:05:24;7.70;;;3.92;;
59702;SDS011;45570;48.782;8.332;2023-04-03T05:07:53;6.07;;;4.57;;
59702;SDS011;45570;48.782;8.332;2023-04-03T05:10:23;9.38;;;4.35;;
59702;SDS011;45570;48.782;8.332;2023-04-03T05:12:52;6.95;;;4.22;;
59702;SDS011;45570;48.782;8.332;2023-04-03T05:15:21;7.85;;;4.47;;
59702;SDS011;45570;48.782;8.332;2023-04-03T05:17:51;5.35;;;4.40;;
59702;SDS011;45570;48.782;8.332;2023-04-03T05:20:21;7.68;;;5.30;;
59702;SDS011;45570;48.782;8.332;2023-04-03T05:22:51;9.43;;;5.45;;
59702;SDS011;45570;48.782;8.332;2023-04-03T05:25:21;6.47;;;4.30;;
59702;SDS011;45570;48.782;8.332;2023-04-03T05:27:54;11.25;;;6.72;;
59702;SDS011;45570;48.782;8.332;2023-04-03T05:30:24;12.00;;;6.93;;
59702;SDS011;45570;48.782;8.332;2023-04-03T05:32:53;10.50;;;5.55;;
59702;SDS011;45570;48.782;8.332;2023-04-03T05:35:32;7.13;;;4.93;;
59702;SDS011;45570;48.782;8.332;2023-04-03T05:38:09;11.50;;;5.50;;
59702;SDS011;45570;48.782;8.332;2023-04-03T05:40:39;10.35;;;6.22;;
59702;SDS011;45570;48.782;8.332;2023-04-03T05:43:08;9.23;;;6.13;;
59702;SDS011;45570;48.782;8.332;2023-04-03T05:45:40;10.32;;;6.30;;
59702;SDS011;45570;48.782;8.332;2023-04-03T05:48:12;9.00;;;5.68;;
59702;SDS011;45570;48.782;8.332;2023-04-03T05:50:42;7.38;;;5.20;;
59702;SDS011;45570;48.782;8.332;2023-04-03T05:53:20;7.90;;;5.07;;
59702;SDS011;45570;48.782;8.332;2023-04-03T05:58:23;8.10;;;5.72;;
59702;SDS011;45570;48.782;8.332;2023-04-03T06:00:53;9.98;;;5.97;;
59702;SDS011;45570;48.782;8.332;2023-04-03T06:03:22;10.30;;;6.00;;
59702;SDS011;45570;48.782;8.332;2023-04-03T06:05:51;7.68;;;4.82;;
59702;SDS011;45570;48.782;8.332;2023-04-03T06:08:24;9.25;;;4.25;;
59702;SDS011;45570;48.782;8.332;2023-04-03T06:10:54;7.53;;;4.45;;
59702;SDS011;45570;48.782;8.332;2023-04-03T06:13:25;5.90;;;4.45;;
59702;SDS011;45570;48.782;8.332;2023-04-03T06:15:55;9.65;;;4.22;;
59702;SDS011;45570;48.782;8.332;2023-04-03T06:18:25;7.38;;;4.10;;
59702;SDS011;45570;48.782;8.332;2023-04-03T06:20:54;9.75;;;4.00;;
59702;SDS011;45570;48.782;8.332;2023-04-03T06:23:26;6.30;;;3.65;;
59702;SDS011;45570;48.782;8.332;2023-04-03T06:25:55;8.68;;;3.60;;
59702;SDS011;45570;48.782;8.332;2023-04-03T06:28:24;4.90;;;3.78;;
59702;SDS011;45570;48.782;8.332;2023-04-03T06:30:54;9.25;;;3.88;;
59702;SDS011;45570;48.782;8.332;2023-04-03T06:33:23;6.03;;;3.92;;
59702;SDS011;45570;48.782;8.332;2023-04-03T06:35:57;7.95;;;4.68;;
59702;SDS011;45570;48.782;8.332;2023-04-03T06:38:28;10.52;;;4.57;;
59702;SDS011;45570;48.782;8.332;2023-04-03T06:40:57;8.10;;;5.47;;
59702;SDS011;45570;48.782;8.332;2023-04-03T06:43:27;6.72;;;3.60;;
59702;SDS011;45570;48.782;8.332;2023-04-03T06:46:00;7.20;;;3.80;;
59702;SDS011;45570;48.782;8.332;2023-04-03T06:48:29;11.40;;;4.22;;
59702;SDS011;45570;48.782;8.332;2023-04-03T06:50:58;7.53;;;4.25;;
59702;SDS011;45570;48.782;8.332;2023-04-03T06:53:30;7.57;;;3.55;;
59702;SDS011;45570;48.782;8.332;2023-04-03T06:56:01;7.30;;;3.50;;
59702;SDS011;45570;48.782;8.332;2023-04-03T06:58:30;5.97;;;3.13;;
59702;SDS011;45570;48.782;8.332;2023-04-03T07:00:59;3.85;;;3.00;;
59702;SDS011;45570;48.782;8.332;2023-04-03T07:03:28;7.07;;;3.00;;
59702;SDS011;45570;48.782;8.332;2023-04-03T07:06:00;4.15;;;3.05;;
59702;SDS011;45570;48.782;8.332;2023-04-03T07:08:31;5.50;;;3.22;;
59702;SDS011;45570;48.782;8.332;2023-04-03T07:11:01;6.00;;;3.20;;
59702;SDS011;45570;48.782;8.332;2023-04-03T07:13:31;3.55;;;2.80;;
59702;SDS011;45570;48.782;8.332;2023-04-03T07:16:01;6.00;;;3.53;;
59702;SDS011;45570;48.782;8.332;2023-04-03T07:18:32;5.38;;;2.92;;
59702;SDS011;45570;48.782;8.332;2023-04-03T07:21:02;5.63;;;3.00;;
59702;SDS011;45570;48.782;8.332;2023-04-03T07:23:34;7.38;;;3.15;;
59702;SDS011;45570;48.782;8.332;2023-04-03T07:26:05;4.40;;;3.42;;
59702;SDS011;45570;48.782;8.332;2023-04-03T07:28:35;3.47;;;2.88;;
59702;SDS011;45570;48.782;8.332;2023-04-03T07:31:06;5.82;;;2.90;;
59702;SDS011;45570;48.782;8.332;2023-04-03T07:33:38;4.43;;;2.50;;
59702;SDS011;45570;48.782;8.332;2023-04-03T07:36:08;5.38;;;2.65;;
59702;SDS011;45570;48.782;8.332;2023-04-03T07:38:41;5.78;;;2.83;;
59702;SDS011;45570;48.782;8.332;2023-04-03T07:41:11;5.18;;;3.05;;
59702;SDS011;45570;48.782;8.332;2023-04-03T07:43:44;3.47;;;2.45;;
59702;SDS011;45570;48.782;8.332;2023-04-03T07:46:16;6.28;;;2.60;;
59702;SDS011;45570;48.782;8.332;2023-04-03T07:48:46;3.08;;;2.50;;
59702;SDS011;45570;48.782;8.332;2023-04-03T07:51:15;2.78;;;2.25;;
59702;SDS011;45570;48.782;8.332;2023-04-03T07:53:46;2.85;;;2.55;;
59702;SDS011;45570;48.782;8.332;2023-04-03T07:56:17;2.88;;;2.55;;
59702;SDS011;45570;48.782;8.332;2023-04-03T07:58:47;4.93;;;3.03;;
59702;SDS011;45570;48.782;8.332;2023-04-03T08:01:16;8.07;;;2.95;;
59702;SDS011;45570;48.782;8.332;2023-04-03T08:03:45;6.28;;;2.80;;
59702;SDS011;45570;48.782;8.332;2023-04-03T08:06:15;4.40;;;2.22;;
59702;SDS011;45570;48.782;8.332;2023-04-03T08:08:56;3.20;;;2.35;;
59702;SDS011;45570;48.782;8.332;2023-04-03T08:11:26;4.75;;;2.53;;
59702;SDS011;45570;48.782;8.332;2023-04-03T08:13:55;6.28;;;2.97;;
59702;SDS011;45570;48.782;8.332;2023-04-03T08:16:25;5.82;;;2.80;;
59702;SDS011;45570;48.782;8.332;2023-04-03T08:18:55;3.95;;;2.90;;
59702;SDS011;45570;48.782;8.332;2023-04-03T08:21:24;5.68;;;2.50;;
59702;SDS011;45570;48.782;8.332;2023-04-03T08:23:53;8.20;;;2.83;;
59702;SDS011;45570;48.782;8.332;2023-04-03T08:26:24;7.25;;;3.00;;
59702;SDS011;45570;48.782;8.332;2023-04-03T08:28:54;3.58;;;2.70;;
59702;SDS011;45570;48.782;8.332;2023-04-03T08:31:23;8.75;;;2.88;;
59702;SDS011;45570;48.782;8.332;2023-04-03T08:33:53;5.30;;;2.97;;
59702;SDS011;45570;48.782;8.332;2023-04-03T08:36:22;3.47;;;2.13;;
59702;SDS011;45570;48.782;8.332;2023-04-03T08:38:53;4.75;;;2.55;;
59702;SDS011;45570;48.782;8.332;2023-04-03T08:41:31;5.47;;;2.50;;
59702;SDS011;45570;48.782;8.332;2023-04-03T08:44:04;3.83;;;2.58;;
59702;SDS011;45570;48.782;8.332;2023-04-03T08:46:47;5.30;;;2.70;;
59702;SDS011;45570;48.782;8.332;2023-04-03T08:49:25;4.43;;;2.80;;
59702;SDS011;45570;48.782;8.332;2023-04-03T08:51:58;4.32;;;2.88;;
59702;SDS011;45570;48.782;8.332;2023-04-03T08:54:32;8.35;;;3.17;;
59702;SDS011;45570;48.782;8.332;2023-04-03T08:57:05;4.32;;;3.25;;
59702;SDS011;45570;48.782;8.332;2023-04-03T08:59:35;4.25;;;3.15;;
59702;SDS011;45570;48.782;8.332;2023-04-03T09:02:16;4.40;;;3.38;;
59702;SDS011;45570;48.782;8.332;2023-04-03T09:04:54;7.70;;;4.07;;
59702;SDS011;45570;48.782;8.332;2023-04-03T09:07:26;6.00;;;3.35;;
59702;SDS011;45570;48.782;8.332;2023-04-03T09:10:05;6.38;;;3.75;;
59702;SDS011;45570;48.782;8.332;2023-04-03T09:12:38;7.57;;;3.38;;
59702;SDS011;45570;48.782;8.332;2023-04-03T09:18:03;5.35;;;2.90;;
59702;SDS011;45570;48.782;8.332;2023-04-03T09:20:39;4.55;;;3.20;;
59702;SDS011;45570;48.782;8.332;2023-04-03T09:23:16;8.45;;;3.15;;
59702;SDS011;45570;48.782;8.332;2023-04-03T09:25:51;6.13;;;3.15;;
59702;SDS011;45570;48.782;8.332;2023-04-03T09:28:27;5.65;;;3.40;;
59702;SDS011;45570;48.782;8.332;2023-04-03T09:31:13;6.18;;;3.33;;
59702;SDS011;45570;48.782;8.332;2023-04-03T09:33:47;5.65;;;3.30;;
59702;SDS011;45570;48.782;8.332;2023-04-03T09:36:39;6.43;;;3.25;;
59702;SDS011;45570;48.782;8.332;2023-04-03T09:39:13;4.88;;;2.85;;
59702;SDS011;45570;48.782;8.332;2023-04-03T09:41:54;5.57;;;4.00;;
59702;SDS011;45570;48.782;8.332;2023-04-03T09:44:28;6.25;;;3.20;;
59702;SDS011;45570;48.782;8.332;2023-04-03T09:46:59;11.38;;;3.92;;
59702;SDS011;45570;48.782;8.332;2023-04-03T09:49:45;4.97;;;3.10;;
59702;SDS011;45570;48.782;8.332;2023-04-03T09:52:19;6.35;;;3.10;;
59702;SDS011;45570;48.782;8.332;2023-04-03T09:54:51;6.63;;;3.00;;
59702;SDS011;45570;48.782;8.332;2023-04-03T09:57:21;5.75;;;3.15;;
59702;SDS011;45570;48.782;8.332;2023-04-03T10:00:02;5.90;;;3.08;;
59702;SDS011;45570;48.782;8.332;2023-04-03T10:02:37;6.32;;;3.45;;
59702;SDS011;45570;48.782;8.332;2023-04-03T10:08:07;5.25;;;3.60;;
59702;SDS011;45570;48.782;8.332;2023-04-03T10:10:43;6.10;;;3.35;;
59702;SDS011;45570;48.782;8.332;2023-04-03T10:13:14;4.70;;;3.00;;
59702;SDS011;45570;48.782;8.332;2023-04-03T10:15:50;8.05;;;3.55;;
59702;SDS011;45570;48.782;8.332;2023-04-03T10:18:33;5.05;;;3.00;;
59702;SDS011;45570;48.782;8.332;2023-04-03T10:21:10;5.45;;;3.00;;
59702;SDS011;45570;48.782;8.332;2023-04-03T10:23:54;4.88;;;3.60;;
59702;SDS011;45570;48.782;8.332;2023-04-03T10:26:52;3.97;;;3.05;;
59702;SDS011;45570;48.782;8.332;2023-04-03T10:29:27;6.75;;;2.55;;
59702;SDS011;45570;48.782;8.332;2023-04-03T10:32:15;7.78;;;2.30;;
59702;SDS011;45570;48.782;8.332;2023-04-03T10:35:12;3.55;;;2.42;;
59702;SDS011;45570;48.782;8.332;2023-04-03T10:37:53;8.20;;;2.63;;
59702;SDS011;45570;48.782;8.332;2023-04-03T10:40:32;5.85;;;2.47;;
59702;SDS011;45570;48.782;8.332;2023-04-03T10:43:08;3.58;;;2.72;;
59702;SDS011;45570;48.782;8.332;2023-04-03T10:45:53;5.25;;;2.60;;
59702;SDS011;45570;48.782;8.332;2023-04-03T10:48:33;4.47;;;2.70;;
59702;SDS011;45570;48.782;8.332;2023-04-03T10:51:16;4.22;;;2.28;;
59702;SDS011;45570;48.782;8.332;2023-04-03T10:53:55;4.80;;;3.03;;
59702;SDS011;45570;48.782;8.332;2023-04-03T10:56:32;2.13;;;1.90;;
59702;SDS011;45570;48.782;8.332;2023-04-03T10:59:14;4.15;;;2.30;;
59702;SDS011;45570;48.782;8.332;2023-04-03T11:01:49;7.20;;;2.55;;
59702;SDS011;45570;48.782;8.332;2023-04-03T11:04:24;5.72;;;2.90;;
59702;SDS011;45570;48.782;8.332;2023-04-03T11:07:00;4.25;;;2.30;;
59702;SDS011;45570;48.782;8.332;2023-04-03T11:09:35;4.57;;;2.70;;
59702;SDS011;45570;48.782;8.332;2023-04-03T11:12:10;4.85;;;2.33;;
59702;SDS011;45570;48.782;8.332;2023-04-03T11:14:43;5.70;;;2.25;;
59702;SDS011;45570;48.782;8.332;2023-04-03T11:17:19;3.30;;;2.50;;
59702;SDS011;45570;48.782;8.332;2023-04-03T11:19:59;2.70;;;2.05;;
59702;SDS011;45570;48.782;8.332;2023-04-03T11:22:35;7.32;;;2.38;;
59702;SDS011;45570;48.782;8.332;2023-04-03T11:25:13;5.38;;;2.60;;
59702;SDS011;45570;48.782;8.332;2023-04-03T11:27:49;4.93;;;2.53;;
59702;SDS011;45570;48.782;8.332;2023-04-03T11:30:23;5.03;;;2.33;;
59702;SDS011;45570;48.782;8.332;2023-04-03T11:33:03;5.00;;;2.42;;
59702;SDS011;45570;48.782;8.332;2023-04-03T11:35:50;4.63;;;2.80;;
59702;SDS011;45570;48.782;8.332;2023-04-03T11:38:23;4.25;;;2.70;;
59702;SDS011;45570;48.782;8.332;2023-04-03T11:40:56;6.15;;;2.55;;
59702;SDS011;45570;48.782;8.332;2023-04-03T11:43:27;4.25;;;2.53;;
59702;SDS011;45570;48.782;8.332;2023-04-03T11:45:58;5.75;;;2.58;;
59702;SDS011;45570;48.782;8.332;2023-04-03T11:48:46;3.88;;;2.50;;
59702;SDS011;45570;48.782;8.332;2023-04-03T11:51:41;3.67;;;2.50;;
59702;SDS011;45570;48.782;8.332;2023-04-03T12:09:29;5.28;;;2.55;;
59702;SDS011;45570;48.782;8.332;2023-04-03T12:15:21;4.30;;;2.27;;
59702;SDS011;45570;48.782;8.332;2023-04-03T12:17:53;4.65;;;2.03;;
59702;SDS011;45570;48.782;8.332;2023-04-03T12:23:28;6.80;;;2.42;;
59702;SDS011;45570;48.782;8.332;2023-04-03T12:26:01;6.00;;;2.30;;
59702;SDS011;45570;48.782;8.332;2023-04-03T12:28:37;4.00;;;2.30;;
59702;SDS011;45570;48.782;8.332;2023-04-03T12:31:08;3.60;;;2.40;;
59702;SDS011;45570;48.782;8.332;2023-04-03T12:33:47;7.72;;;2.80;;
59702;SDS011;45570;48.782;8.332;2023-04-03T12:36:42;7.82;;;3.40;;
59702;SDS011;45570;48.782;8.332;2023-04-03T12:39:24;6.50;;;2.45;;
59702;SDS011;45570;48.782;8.332;2023-04-03T12:42:09;5.32;;;2.13;;
59702;SDS011;45570;48.782;8.332;2023-04-03T12:44:50;7.20;;;2.38;;
59702;SDS011;45570;48.782;8.332;2023-04-03T12:47:28;4.32;;;1.90;;
59702;SDS011;45570;48.782;8.332;2023-04-03T12:50:03;2.80;;;2.03;;
59702;SDS011;45570;48.782;8.332;2023-04-03T12:52:47;6.82;;;2.50;;
59702;SDS011;45570;48.782;8.332;2023-04-03T12:55:24;3.08;;;1.88;;
59702;SDS011;45570;48.782;8.332;2023-04-03T12:57:54;6.20;;;2.20;;
59702;SDS011;45570;48.782;8.332;2023-04-03T13:00:28;3.50;;;2.33;;
59702;SDS011;45570;48.782;8.332;2023-04-03T13:03:02;7.63;;;2.80;;
59702;SDS011;45570;48.782;8.332;2023-04-03T13:05:33;2.63;;;1.95;;
59702;SDS011;45570;48.782;8.332;2023-04-03T13:08:13;4.38;;;2.40;;
59702;SDS011;45570;48.782;8.332;2023-04-03T13:10:53;5.03;;;2.33;;
59702;SDS011;45570;48.782;8.332;2023-04-03T13:13:26;7.50;;;2.58;;
59702;SDS011;45570;48.782;8.332;2023-04-03T13:15:55;3.15;;;2.25;;
59702;SDS011;45570;48.782;8.332;2023-04-03T13:18:26;5.53;;;2.40;;
59702;SDS011;45570;48.782;8.332;2023-04-03T13:21:00;5.28;;;2.30;;
59702;SDS011;45570;48.782;8.332;2023-04-03T13:23:33;5.40;;;2.43;;
59702;SDS011;45570;48.782;8.332;2023-04-03T13:26:07;7.15;;;3.03;;
59702;SDS011;45570;48.782;8.332;2023-04-03T13:28:39;5.55;;;2.83;;
59702;SDS011;45570;48.782;8.332;2023-04-03T13:31:17;5.78;;;2.38;;
59702;SDS011;45570;48.782;8.332;2023-04-03T13:33:53;9.50;;;2.60;;
59702;SDS011;45570;48.782;8.332;2023-04-03T13:36:26;4.43;;;2.38;;
59702;SDS011;45570;48.782;8.332;2023-04-03T13:39:00;3.35;;;2.10;;
59702;SDS011;45570;48.782;8.332;2023-04-03T13:41:34;4.20;;;2.35;;
59702;SDS011;45570;48.782;8.332;2023-04-03T13:44:18;4.30;;;2.28;;
59702;SDS011;45570;48.782;8.332;2023-04-03T13:47:14;7.32;;;2.83;;
59702;SDS011;45570;48.782;8.332;2023-04-03T13:49:58;3.75;;;2.42;;
59702;SDS011;45570;48.782;8.332;2023-04-03T13:52:29;8.00;;;2.38;;
59702;SDS011;45570;48.782;8.332;2023-04-03T13:55:03;3.58;;;1.95;;
59702;SDS011;45570;48.782;8.332;2023-04-03T13:57:55;5.00;;;2.30;;
59702;SDS011;45570;48.782;8.332;2023-04-03T14:00:28;6.38;;;2.38;;
59702;SDS011;45570;48.782;8.332;2023-04-03T14:03:12;10.10;;;2.33;;
59702;SDS011;45570;48.782;8.332;2023-04-03T14:05:57;5.25;;;2.67;;
59702;SDS011;45570;48.782;8.332;2023-04-03T14:08:28;2.42;;;2.00;;
59702;SDS011;45570;48.782;8.332;2023-04-03T14:11:11;4.32;;;2.28;;
59702;SDS011;45570;48.782;8.332;2023-04-03T14:13:49;3.78;;;2.00;;
59702;SDS011;45570;48.782;8.332;2023-04-03T14:18:50;6.13;;;2.20;;
59702;SDS011;45570;48.782;8.332;2023-04-03T14:21:19;3.50;;;2.22;;
59702;SDS011;45570;48.782;8.332;2023-04-03T14:23:49;4.30;;;2.33;;
59702;SDS011;45570;48.782;8.332;2023-04-03T14:26:19;3.90;;;2.20;;
59702;SDS011;45570;48.782;8.332;2023-04-03T14:28:53;3.45;;;2.60;;
59702;SDS011;45570;48.782;8.332;2023-04-03T14:31:23;3.45;;;2.08;;
59702;SDS011;45570;48.782;8.332;2023-04-03T14:33:53;4.20;;;2.17;;
59702;SDS011;45570;48.782;8.332;2023-04-03T14:36:23;4.55;;;2.45;;
59702;SDS011;45570;48.782;8.332;2023-04-03T14:38:55;3.72;;;2.20;;
59702;SDS011;45570;48.782;8.332;2023-04-03T14:41:25;2.85;;;2.17;;
59702;SDS011;45570;48.782;8.332;2023-04-03T14:43:56;3.28;;;2.22;;
59702;SDS011;45570;48.782;8.332;2023-04-03T14:46:26;5.72;;;2.80;;
59702;SDS011;45570;48.782;8.332;2023-04-03T14:49:19;2.90;;;2.20;;
59702;SDS011;45570;48.782;8.332;2023-04-03T14:51:49;8.18;;;2.58;;
59702;SDS011;45570;48.782;8.332;2023-04-03T14:54:20;6.95;;;2.38;;
59702;SDS011;45570;48.782;8.332;2023-04-03T14:56:52;6.93;;;2.22;;
59702;SDS011;45570;48.782;8.332;2023-04-03T14:59:24;9.77;;;2.80;;
59702;SDS011;45570;48.782;8.332;2023-04-03T15:01:54;4.25;;;2.42;;
59702;SDS011;45570;48.782;8.332;2023-04-03T15:04:23;5.25;;;2.40;;
59702;SDS011;45570;48.782;8.332;2023-04-03T15:06:53;5.15;;;2.50;;
59702;SDS011;45570;48.782;8.332;2023-04-03T15:09:23;7.85;;;3.58;;
59702;SDS011;45570;48.782;8.332;2023-04-03T15:11:54;3.85;;;2.17;;
59702;SDS011;45570;48.782;8.332;2023-04-03T15:14:25;3.92;;;2.28;;
59702;SDS011;45570;48.782;8.332;2023-04-03T15:17:08;4.30;;;2.60;;
59702;SDS011;45570;48.782;8.332;2023-04-03T15:19:43;5.45;;;2.60;;
59702;SDS011;45570;48.782;8.332;2023-04-03T15:22:14;4.13;;;2.20;;
59702;SDS011;45570;48.782;8.332;2023-04-03T15:24:45;4.63;;;2.45;;
59702;SDS011;45570;48.782;8.332;2023-04-03T15:27:15;3.90;;;2.20;;
59702;SDS011;45570;48.782;8.332;2023-04-03T15:29:46;4.80;;;2.28;;
59702;SDS011;45570;48.782;8.332;2023-04-03T15:32:15;7.07;;;2.55;;
59702;SDS011;45570;48.782;8.332;2023-04-03T15:34:45;6.00;;;2.40;;
59702;SDS011;45570;48.782;8.332;2023-04-03T15:37:14;3.83;;;2.50;;
59702;SDS011;45570;48.782;8.332;2023-04-03T15:39:44;3.67;;;2.58;;
59702;SDS011;45570;48.782;8.332;2023-04-03T15:42:13;3.38;;;2.13;;
59702;SDS011;45570;48.782;8.332;2023-04-03T15:44:42;5.78;;;2.60;;
59702;SDS011;45570;48.782;8.332;2023-04-03T15:47:13;4.88;;;2.10;;
59702;SDS011;45570;48.782;8.332;2023-04-03T15:49:44;4.40;;;2.20;;
59702;SDS011;45570;48.782;8.332;2023-04-03T15:52:13;3.88;;;2.25;;
59702;SDS011;45570;48.782;8.332;2023-04-03T15:54:43;4.85;;;2.40;;
59702;SDS011;45570;48.782;8.332;2023-04-03T15:57:12;6.53;;;2.30;;
59702;SDS011;45570;48.782;8.332;2023-04-03T15:59:42;8.63;;;2.35;;
59702;SDS011;45570;48.782;8.332;2023-04-03T16:02:11;4.63;;;2.05;;